createdAt,value
2022-08-03T00:01:30.421Z,2.30
2022-08-03T00:03:58.150Z,2.77
2022-08-03T00:06:27.243Z,2.80
2022-08-03T00:08:54.964Z,2.07
2022-08-03T00:11:24.840Z,2.90
2022-08-03T00:13:52.521Z,2.83
2022-08-03T00:16:20.570Z,2.40
2022-08-03T00:18:50.786Z,2.80
2022-08-03T00:21:18.521Z,2.20
2022-08-03T00:23:51.342Z,2.40
2022-08-03T00:26:20.485Z,2.30
2022-08-03T00:28:48.274Z,2.90
2022-08-03T00:31:15.928Z,2.67
2022-08-03T00:33:58.341Z,1.90
2022-08-03T00:36:27.546Z,2.37
2022-08-03T00:38:56.785Z,2.23
2022-08-03T00:41:24.491Z,2.00
2022-08-03T00:43:52.239Z,1.90
2022-08-03T00:46:22.209Z,2.10
2022-08-03T00:48:50.301Z,1.90
2022-08-03T00:51:18.253Z,1.23
2022-08-03T00:53:48.253Z,1.40
2022-08-03T00:56:18.239Z,1.83
2022-08-03T00:58:47.328Z,2.00
2022-08-03T01:01:16.155Z,1.37
2022-08-03T01:03:45.413Z,1.33
2022-08-03T01:06:18.669Z,1.80
2022-08-03T01:08:54.372Z,1.27
2022-08-03T01:11:33.632Z,2.50
2022-08-03T01:14:19.376Z,1.60
2022-08-03T01:16:55.882Z,1.47
2022-08-03T01:19:46.333Z,1.60
2022-08-03T01:22:36.295Z,1.70
2022-08-03T01:25:09.481Z,1.60
2022-08-03T01:27:51.162Z,1.53
2022-08-03T01:30:20.445Z,1.80
2022-08-03T01:33:02.618Z,1.50
2022-08-03T01:35:35.521Z,1.90
2022-08-03T01:38:10.948Z,1.30
2022-08-03T01:40:42.286Z,1.40
2022-08-03T01:43:13.428Z,1.50
2022-08-03T01:45:44.890Z,1.87
2022-08-03T01:48:14.512Z,1.67
2022-08-03T01:50:43.584Z,1.43
2022-08-03T01:53:15.512Z,1.53
2022-08-03T01:55:44.339Z,1.57
2022-08-03T01:58:14.749Z,1.40
2022-08-03T02:00:50.063Z,2.03
2022-08-03T02:03:19.521Z,1.50
2022-08-03T02:05:49.933Z,1.47
2022-08-03T02:08:25.138Z,1.43
2022-08-03T02:10:53.723Z,1.67
2022-08-03T02:13:23.049Z,1.27
2022-08-03T02:15:53.349Z,1.23
2022-08-03T02:18:22.783Z,1.30
2022-08-03T02:20:51.536Z,1.60
2022-08-03T02:23:19.897Z,1.70
2022-08-03T02:25:52.023Z,2.03
2022-08-03T02:28:23.211Z,1.30
2022-08-03T02:30:55.897Z,1.30
2022-08-03T02:33:28.147Z,1.47
2022-08-03T02:35:58.994Z,1.40
2022-08-03T02:38:35.546Z,1.70
2022-08-03T08:42:20.627Z,0.77
2022-08-03T08:44:49.726Z,1.10
2022-08-03T08:47:19.783Z,0.73
2022-08-03T08:50:08.936Z,1.33
2022-08-03T08:52:42.128Z,0.80
2022-08-03T08:55:11.634Z,0.97
2022-08-03T08:57:43.792Z,0.80
2022-08-03T09:00:14.521Z,0.60
2022-08-03T09:02:44.430Z,0.70
2022-08-03T09:05:13.366Z,0.80
2022-08-03T09:07:41.227Z,0.93
2022-08-03T09:10:13.493Z,0.80
2022-08-03T09:12:44.702Z,0.63
2022-08-03T09:15:25.345Z,0.70
2022-08-03T09:17:55.071Z,1.13
2022-08-03T09:20:25.466Z,0.87
2022-08-03T09:22:56.278Z,0.97
2022-08-03T09:25:34.759Z,0.77
2022-08-03T09:28:08.435Z,1.10
2022-08-03T09:30:38.590Z,0.93
2022-08-03T09:33:08.397Z,0.80
2022-08-03T09:35:58.028Z,0.60
2022-08-03T09:38:27.444Z,0.93
2022-08-03T09:41:00.109Z,0.97
2022-08-03T09:43:28.609Z,1.17
2022-08-03T09:46:07.295Z,1.23
2022-08-03T09:48:36.773Z,0.90
2022-08-03T09:51:13.827Z,0.97
2022-08-03T09:53:59.428Z,0.73
2022-08-03T09:56:40.529Z,1.20
2022-08-03T09:59:08.296Z,0.87
2022-08-03T10:01:39.589Z,0.73
2022-08-03T10:04:07.291Z,0.70
2022-08-03T10:06:35.046Z,0.80
2022-08-03T10:09:08.119Z,0.97
2022-08-03T10:11:40.914Z,0.87
2022-08-03T10:14:10.905Z,1.17
2022-08-03T10:16:41.163Z,1.03
2022-08-03T10:19:10.584Z,1.27
2022-08-03T10:21:40.163Z,0.70
2022-08-03T10:24:10.693Z,0.90
2022-08-03T10:26:49.788Z,0.97
2022-08-03T10:29:24.376Z,0.70
2022-08-03T10:31:58.404Z,1.27
2022-08-03T10:34:28.407Z,0.60
2022-08-03T10:37:00.180Z,0.80
2022-08-03T10:39:30.541Z,0.77
2022-08-03T10:42:00.038Z,0.70
2022-08-03T10:44:34.903Z,0.80
2022-08-03T10:47:05.492Z,1.00
2022-08-03T10:49:35.619Z,1.03
2022-08-03T10:52:12.956Z,3.90
2022-08-03T10:54:57.042Z,1.40
2022-08-03T10:57:48.866Z,0.87
2022-08-03T11:00:19.169Z,0.70
2022-08-03T11:03:09.973Z,0.90
2022-08-03T11:05:42.888Z,1.03
2022-08-03T11:08:28.965Z,0.83
2022-08-03T11:10:59.401Z,0.63
2022-08-03T11:13:30.949Z,0.80
2022-08-03T11:16:21.866Z,0.80
2022-08-03T11:18:59.561Z,0.80
2022-08-03T11:21:58.867Z,1.30
2022-08-03T11:24:58.224Z,0.73
2022-08-03T11:27:27.973Z,0.90
2022-08-03T11:29:57.734Z,0.90
2022-08-03T11:32:54.487Z,0.87
2022-08-03T11:35:25.543Z,0.75
2022-08-03T11:38:05.309Z,0.73
2022-08-03T11:40:38.689Z,0.70
2022-08-03T11:43:08.004Z,0.80
2022-08-03T11:45:36.410Z,1.00
2022-08-03T11:48:15.430Z,0.87
2022-08-03T11:50:46.210Z,1.20
2022-08-03T11:53:18.183Z,0.98
2022-08-03T11:55:48.910Z,0.70
2022-08-03T11:59:00.814Z,0.88
2022-08-03T12:01:07.119Z,0.88
2022-08-03T12:03:36.279Z,0.75
2022-08-03T12:06:10.826Z,0.70
2022-08-03T12:08:38.527Z,0.60
2022-08-03T12:11:08.860Z,1.02
2022-08-03T12:14:36.708Z,0.70
2022-08-03T12:16:29.663Z,0.80
2022-08-03T12:18:59.440Z,0.88
2022-08-03T12:21:28.925Z,0.80
2022-08-03T12:24:00.756Z,1.00
2022-08-03T12:26:29.341Z,0.90
2022-08-03T12:28:57.523Z,1.00
2022-08-03T12:31:25.696Z,0.73
2022-08-03T12:34:02.686Z,0.90
2022-08-03T12:36:33.357Z,0.88
2022-08-03T12:39:04.171Z,1.00
2022-08-03T12:41:35.470Z,2.35
2022-08-03T12:44:04.379Z,0.90
2022-08-03T12:46:42.717Z,1.23
2022-08-03T12:49:15.457Z,0.82
2022-08-03T12:52:03.901Z,1.10
2022-08-03T12:54:36.057Z,0.95
2022-08-03T12:57:05.432Z,1.20
2022-08-03T12:59:40.716Z,0.88
2022-08-03T13:02:16.794Z,1.20
2022-08-03T13:04:47.418Z,0.60
2022-08-03T13:07:19.385Z,0.60
2022-08-03T13:09:48.904Z,0.73
2022-08-03T13:12:18.354Z,0.77
2022-08-03T13:14:47.402Z,0.88
2022-08-03T13:17:16.776Z,1.08
2022-08-03T13:19:46.433Z,0.60
2022-08-03T13:22:16.728Z,0.85
2022-08-03T13:24:45.726Z,0.80
2022-08-03T13:28:00.005Z,0.90
2022-08-03T13:30:03.879Z,0.50
2022-08-03T13:32:31.848Z,0.60
2022-08-03T13:34:59.560Z,1.15
2022-08-03T13:37:28.619Z,1.00
2022-08-03T13:39:59.558Z,0.80
2022-08-03T13:42:30.528Z,1.23
2022-08-03T13:44:58.750Z,0.68
2022-08-03T13:47:26.522Z,0.95
2022-08-03T13:50:00.385Z,0.75
2022-08-03T13:52:32.299Z,0.70
2022-08-03T13:55:00.353Z,0.82
2022-08-03T13:58:03.563Z,0.68
2022-08-03T14:00:26.944Z,0.85
2022-08-03T14:03:06.614Z,1.10
2022-08-03T14:05:38.299Z,0.77
2022-08-03T14:08:08.171Z,0.98
2022-08-03T14:10:36.847Z,0.80
2022-08-03T14:13:05.221Z,0.60
2022-08-03T14:15:37.690Z,1.23
2022-08-03T14:18:06.592Z,0.80
2022-08-03T14:20:37.926Z,0.80
2022-08-03T14:23:08.673Z,1.17
2022-08-03T14:25:50.000Z,0.50
2022-08-03T14:28:18.963Z,0.63
2022-08-03T14:30:46.688Z,0.75
2022-08-03T14:33:14.340Z,1.20
2022-08-03T14:35:42.021Z,1.02
2022-08-03T14:38:11.085Z,0.80
2022-08-03T14:40:38.828Z,0.95
2022-08-03T14:43:06.718Z,0.65
2022-08-03T14:45:37.299Z,0.98
2022-08-03T14:50:33.073Z,1.00
2022-08-03T14:50:55.140Z,0.90
2022-08-03T14:53:24.266Z,1.13
2022-08-03T14:55:53.416Z,0.63
2022-08-03T14:58:22.156Z,0.90
2022-08-03T15:00:50.914Z,0.98
2022-08-03T15:03:20.364Z,0.70
2022-08-03T15:05:48.507Z,1.00
2022-08-03T15:08:16.231Z,1.27
2022-08-03T15:10:45.724Z,0.77
2022-08-03T15:13:13.541Z,1.02
2022-08-03T15:15:42.238Z,1.38
2022-08-03T15:18:10.482Z,1.40
2022-08-03T15:20:44.940Z,1.10
2022-08-03T15:23:15.135Z,1.00
2022-08-03T15:26:28.677Z,0.80
2022-08-03T15:28:32.126Z,0.90
2022-08-03T15:30:59.854Z,1.00
2022-08-03T15:33:27.707Z,1.65
2022-08-03T15:35:56.207Z,0.95
2022-08-03T15:38:25.806Z,1.35
2022-08-03T15:40:54.452Z,0.98
2022-08-03T15:43:22.238Z,0.90
2022-08-03T15:46:19.037Z,0.80
2022-08-03T15:48:39.211Z,1.05
2022-08-03T15:51:07.269Z,0.85
2022-08-03T15:53:38.219Z,0.70
2022-08-03T15:56:13.290Z,1.00
2022-08-03T15:59:10.360Z,0.90
2022-08-03T16:01:32.838Z,0.90
2022-08-03T16:04:00.623Z,1.10
2022-08-03T16:06:35.300Z,1.10
2022-08-03T16:09:22.910Z,1.00
2022-08-03T16:11:54.428Z,1.00
2022-08-03T16:14:32.709Z,1.00
2022-08-03T16:17:05.229Z,1.00
2022-08-03T16:19:32.956Z,1.10
2022-08-03T16:22:01.250Z,0.88
2022-08-03T16:24:28.964Z,0.70
2022-08-03T16:26:56.702Z,0.70
2022-08-03T16:29:24.474Z,0.90
2022-08-03T16:31:53.343Z,0.80
2022-08-03T16:34:22.371Z,0.70
2022-08-03T16:36:50.060Z,0.82
2022-08-03T16:39:18.887Z,0.95
2022-08-03T16:41:54.360Z,1.33
2022-08-03T16:44:29.641Z,0.85
2022-08-03T16:46:57.357Z,0.90
2022-08-03T16:49:54.966Z,1.00
2022-08-03T16:52:14.374Z,1.00
2022-08-03T16:54:50.617Z,1.00
2022-08-03T16:57:55.911Z,0.60
2022-08-03T17:00:10.560Z,0.90
2022-08-03T17:02:39.386Z,0.70
2022-08-03T17:05:17.531Z,1.27
2022-08-03T17:07:50.639Z,0.83
2022-08-03T17:10:26.983Z,0.95
2022-08-03T17:12:58.067Z,0.80
2022-08-03T17:15:38.328Z,0.87
2022-08-03T17:18:18.180Z,1.00
2022-08-03T17:20:52.784Z,0.90
2022-08-03T17:23:34.300Z,1.20
2022-08-03T17:26:08.236Z,0.90
2022-08-03T17:28:50.148Z,0.80
2022-08-03T17:31:32.039Z,1.10
2022-08-03T17:34:01.958Z,0.70
2022-08-03T17:37:02.204Z,0.90
2022-08-03T17:39:41.888Z,1.00
2022-08-03T17:42:30.657Z,1.23
2022-08-03T17:45:02.191Z,0.97
2022-08-03T17:47:42.671Z,1.07
2022-08-03T17:50:24.067Z,1.00
2022-08-03T17:53:07.937Z,0.80
2022-08-03T17:55:56.582Z,0.80
2022-08-03T17:58:41.213Z,0.93
2022-08-03T18:02:02.589Z,1.20
2022-08-03T18:04:29.683Z,1.00
2022-08-03T18:06:59.901Z,1.30
2022-08-03T18:10:05.906Z,0.70
2022-08-03T18:12:27.757Z,1.07
2022-08-03T18:15:01.532Z,0.90
2022-08-03T18:17:58.203Z,1.30
2022-08-03T18:20:34.072Z,1.00
2022-08-03T18:23:07.231Z,1.40
2022-08-03T18:25:44.917Z,1.00
2022-08-03T18:28:23.242Z,0.90
2022-08-03T18:30:54.411Z,0.90
2022-08-03T18:34:17.133Z,1.50
2022-08-03T18:36:17.853Z,1.07
2022-08-03T18:38:48.075Z,1.33
2022-08-03T18:41:32.871Z,1.00
2022-08-03T18:44:06.838Z,1.37
2022-08-03T18:46:46.361Z,0.83
2022-08-03T18:49:29.211Z,1.20
2022-08-03T18:52:03.659Z,1.43
2022-08-03T18:54:58.258Z,1.17
2022-08-03T18:57:37.996Z,0.93
2022-08-03T19:00:10.509Z,1.10
2022-08-03T19:02:48.652Z,1.17
2022-08-03T19:05:20.352Z,1.33
2022-08-03T19:07:59.588Z,1.47
2022-08-03T19:10:34.573Z,1.50
2022-08-03T19:13:11.454Z,1.37
2022-08-03T19:15:51.506Z,1.60
2022-08-03T19:18:21.916Z,1.30
2022-08-03T19:20:54.817Z,1.73
2022-08-03T19:23:25.936Z,1.27
2022-08-03T19:26:00.114Z,1.40
2022-08-03T19:28:31.019Z,1.80
2022-08-03T19:31:02.694Z,1.37
2022-08-03T19:33:55.987Z,2.07
2022-08-03T19:36:27.263Z,1.40
2022-08-03T19:38:59.744Z,1.70
2022-08-03T19:41:42.180Z,1.90
2022-08-03T19:44:20.437Z,1.90
2022-08-03T19:46:54.962Z,1.60
2022-08-03T19:49:57.094Z,1.70
2022-08-03T19:52:16.679Z,1.93
2022-08-03T19:54:54.654Z,1.40
2022-08-03T19:57:24.687Z,2.47
2022-08-03T19:59:55.019Z,1.50
2022-08-03T20:02:26.694Z,1.60
2022-08-03T20:04:55.318Z,1.37
2022-08-03T20:07:24.718Z,1.50
2022-08-03T20:09:56.611Z,1.53
2022-08-03T20:12:27.614Z,1.97
2022-08-03T20:14:58.861Z,1.67
2022-08-03T20:17:55.606Z,1.60
2022-08-03T20:20:20.166Z,1.70
2022-08-03T20:22:53.584Z,1.33
2022-08-03T20:25:38.228Z,1.43
2022-08-03T20:28:14.455Z,1.53
2022-08-03T20:30:47.125Z,1.40
2022-08-03T20:33:18.729Z,1.70
2022-08-03T20:35:49.200Z,1.70
2022-08-03T20:38:17.497Z,1.20
2022-08-03T20:40:46.473Z,1.87
2022-08-03T20:43:14.397Z,1.40
2022-08-03T20:48:33.614Z,1.37
2022-08-03T20:51:01.781Z,1.27
2022-08-03T20:53:57.411Z,1.53
2022-08-03T20:56:20.445Z,1.47
2022-08-03T20:58:50.181Z,1.77
2022-08-03T21:01:27.738Z,1.50
2022-08-03T21:03:56.062Z,1.03
2022-08-03T21:06:27.939Z,1.47
2022-08-03T21:09:05.198Z,1.77
2022-08-03T21:11:41.942Z,0.90
2022-08-03T21:13:07.322Z,1.80
2022-08-03T21:14:16.481Z,1.20
2022-08-03T21:16:46.718Z,1.67
2022-08-03T21:19:18.444Z,1.20
2022-08-03T21:21:49.108Z,1.33
2022-08-03T21:24:22.898Z,1.40
2022-08-03T21:26:54.931Z,2.23
2022-08-03T21:29:23.312Z,1.43
2022-08-03T21:31:52.737Z,1.47
2022-08-03T21:34:21.939Z,1.50
2022-08-03T21:36:50.600Z,1.53
2022-08-03T21:39:18.903Z,1.80
2022-08-03T21:41:53.028Z,1.87
2022-08-03T21:44:28.698Z,1.37
2022-08-03T21:47:00.195Z,1.80
2022-08-03T21:50:04.514Z,1.83
2022-08-03T21:52:23.217Z,1.50
2022-08-03T21:54:52.284Z,1.80
2022-08-03T21:57:23.380Z,1.23
2022-08-03T21:59:55.467Z,1.43
2022-08-03T22:02:28.383Z,1.40
2022-08-03T22:04:59.621Z,1.90
2022-08-03T22:07:29.671Z,1.37
2022-08-03T22:09:59.577Z,1.67
2022-08-03T22:12:32.534Z,2.10
2022-08-03T22:15:02.887Z,1.40
2022-08-03T22:17:55.384Z,1.20
2022-08-03T22:20:23.541Z,1.50
2022-08-03T22:22:56.580Z,1.37
2022-08-03T22:25:28.934Z,2.00
2022-08-03T22:27:58.306Z,1.83
2022-08-03T22:30:26.840Z,1.83
2022-08-03T22:32:57.954Z,1.77
2022-08-03T22:35:27.767Z,1.67
2022-08-03T22:37:56.860Z,1.77
2022-08-03T22:40:27.856Z,1.77
2022-08-03T22:42:56.053Z,1.33
2022-08-03T22:46:06.876Z,1.57
2022-08-03T22:48:17.710Z,1.70
2022-08-03T22:50:46.379Z,1.47
2022-08-03T22:53:17.349Z,1.53
2022-08-03T22:55:45.777Z,1.27
2022-08-03T22:58:16.847Z,1.90
2022-08-03T23:00:53.595Z,1.80
2022-08-03T23:03:59.763Z,2.43
2022-08-03T23:06:20.098Z,2.00
2022-08-03T23:08:48.749Z,1.80
2022-08-03T23:11:19.357Z,1.90
2022-08-03T23:13:48.481Z,1.93
2022-08-03T23:16:28.954Z,1.60
2022-08-03T23:18:59.659Z,2.00
2022-08-03T23:21:53.971Z,1.30
2022-08-03T23:24:29.390Z,1.57
2022-08-03T23:26:59.432Z,1.73
2022-08-03T23:29:29.844Z,2.10
2022-08-03T23:31:59.793Z,2.17
2022-08-03T23:34:47.332Z,1.63
2022-08-03T23:37:16.107Z,1.80
2022-08-03T23:39:49.800Z,2.00
2022-08-03T23:42:20.888Z,2.20
2022-08-03T23:44:55.744Z,2.03
2022-08-03T23:47:24.653Z,1.97
2022-08-03T23:50:15.050Z,2.03
2022-08-03T23:52:57.218Z,2.00
2022-08-03T23:55:45.800Z,2.00
2022-08-03T23:58:31.787Z,2.13
